Puerto Iguazu, Argentina
Current Conditions -  °F | °C
As of 5:00 AM on Wednesday 26 Nov 2014 (Local Time) from SBFI Reporting Station
Broken Clouds Broken Clouds  
Wind Chill: 72°   Ceiling: 10000
Heat Index: 72°   Visibility: 6mi
Dew Point: 70°   Wind: 1mph
Humidity: 94%   Direction: 100°E
Pressure: 29.74"   Gusts: NA
Location:  25.57°S, 54.57°W
Report Text: SBFI 260800Z 10001KT 9999 FEW020 BKN100 22/21 Q1007
Loading
Personal Weather Stations






























Interactive Weather Map New forecast layout! Learn more

10-Day Weather Forecast

Advertisements
Track Severe Weather on mobile